sensor_id;sensor_type;location;lat;lon;timestamp;P1;durP1;ratioP1;P2;durP2;ratioP2
51560;SDS011;37654;51.262;17.058;2023-07-22T00:01:08;2.00;;;1.38;;
51560;SDS011;37654;51.262;17.058;2023-07-22T00:03:33;3.43;;;2.10;;
51560;SDS011;37654;51.262;17.058;2023-07-22T00:06:05;3.73;;;2.07;;
51560;SDS011;37654;51.262;17.058;2023-07-22T00:08:31;4.03;;;1.98;;
51560;SDS011;37654;51.262;17.058;2023-07-22T00:10:56;2.83;;;1.88;;
51560;SDS011;37654;51.262;17.058;2023-07-22T00:13:21;3.50;;;1.90;;
51560;SDS011;37654;51.262;17.058;2023-07-22T00:15:47;2.90;;;2.00;;
51560;SDS011;37654;51.262;17.058;2023-07-22T00:18:12;2.95;;;2.30;;
51560;SDS011;37654;51.262;17.058;2023-07-22T00:20:37;3.50;;;2.03;;
51560;SDS011;37654;51.262;17.058;2023-07-22T00:23:03;2.38;;;1.55;;
51560;SDS011;37654;51.262;17.058;2023-07-22T00:25:28;5.05;;;2.10;;
51560;SDS011;37654;51.262;17.058;2023-07-22T00:27:53;2.33;;;1.77;;
51560;SDS011;37654;51.262;17.058;2023-07-22T00:30:19;2.30;;;1.70;;
51560;SDS011;37654;51.262;17.058;2023-07-22T00:32:44;3.50;;;2.00;;
51560;SDS011;37654;51.262;17.058;2023-07-22T00:35:09;3.00;;;1.85;;
51560;SDS011;37654;51.262;17.058;2023-07-22T00:37:35;6.40;;;2.35;;
51560;SDS011;37654;51.262;17.058;2023-07-22T00:40:01;2.33;;;1.98;;
51560;SDS011;37654;51.262;17.058;2023-07-22T00:42:27;1.90;;;1.70;;
51560;SDS011;37654;51.262;17.058;2023-07-22T00:44:52;2.63;;;2.07;;
51560;SDS011;37654;51.262;17.058;2023-07-22T00:47:17;2.20;;;1.80;;
51560;SDS011;37654;51.262;17.058;2023-07-22T00:49:43;4.53;;;2.70;;
51560;SDS011;37654;51.262;17.058;2023-07-22T00:52:08;5.65;;;2.35;;
51560;SDS011;37654;51.262;17.058;2023-07-22T00:54:34;4.10;;;2.28;;
51560;SDS011;37654;51.262;17.058;2023-07-22T00:56:59;2.92;;;2.15;;
51560;SDS011;37654;51.262;17.058;2023-07-22T00:59:24;5.13;;;2.00;;
51560;SDS011;37654;51.262;17.058;2023-07-22T01:01:50;3.40;;;1.95;;
51560;SDS011;37654;51.262;17.058;2023-07-22T01:04:15;4.03;;;2.22;;
51560;SDS011;37654;51.262;17.058;2023-07-22T01:06:43;3.80;;;1.80;;
51560;SDS011;37654;51.262;17.058;2023-07-22T01:09:09;2.72;;;1.60;;
51560;SDS011;37654;51.262;17.058;2023-07-22T01:11:34;2.60;;;2.00;;
51560;SDS011;37654;51.262;17.058;2023-07-22T01:14:00;3.13;;;2.10;;
51560;SDS011;37654;51.262;17.058;2023-07-22T01:16:26;2.70;;;2.20;;
51560;SDS011;37654;51.262;17.058;2023-07-22T01:18:52;2.65;;;2.00;;
51560;SDS011;37654;51.262;17.058;2023-07-22T01:21:18;2.72;;;2.10;;
51560;SDS011;37654;51.262;17.058;2023-07-22T01:23:44;4.05;;;2.22;;
51560;SDS011;37654;51.262;17.058;2023-07-22T01:26:09;4.43;;;2.90;;
51560;SDS011;37654;51.262;17.058;2023-07-22T01:28:35;4.73;;;2.73;;
51560;SDS011;37654;51.262;17.058;2023-07-22T01:31:00;5.82;;;3.33;;
51560;SDS011;37654;51.262;17.058;2023-07-22T01:33:26;4.10;;;2.85;;
51560;SDS011;37654;51.262;17.058;2023-07-22T01:35:52;5.75;;;2.45;;
51560;SDS011;37654;51.262;17.058;2023-07-22T01:38:18;6.28;;;2.95;;
51560;SDS011;37654;51.262;17.058;2023-07-22T01:40:44;4.53;;;2.80;;
51560;SDS011;37654;51.262;17.058;2023-07-22T01:43:09;6.97;;;3.27;;
51560;SDS011;37654;51.262;17.058;2023-07-22T01:45:34;6.73;;;3.43;;
51560;SDS011;37654;51.262;17.058;2023-07-22T01:48:00;5.60;;;3.13;;
51560;SDS011;37654;51.262;17.058;2023-07-22T01:50:25;6.43;;;3.00;;
51560;SDS011;37654;51.262;17.058;2023-07-22T01:52:51;6.50;;;2.93;;
51560;SDS011;37654;51.262;17.058;2023-07-22T01:55:17;4.35;;;2.80;;
51560;SDS011;37654;51.262;17.058;2023-07-22T01:57:43;4.93;;;3.10;;
51560;SDS011;37654;51.262;17.058;2023-07-22T02:00:08;4.17;;;2.50;;
51560;SDS011;37654;51.262;17.058;2023-07-22T02:02:35;4.88;;;2.80;;
51560;SDS011;37654;51.262;17.058;2023-07-22T02:05:01;8.27;;;3.20;;
51560;SDS011;37654;51.262;17.058;2023-07-22T02:07:26;8.25;;;4.13;;
51560;SDS011;37654;51.262;17.058;2023-07-22T02:09:53;7.47;;;3.47;;
51560;SDS011;37654;51.262;17.058;2023-07-22T02:12:19;7.70;;;3.63;;
51560;SDS011;37654;51.262;17.058;2023-07-22T02:14:44;6.53;;;3.80;;
51560;SDS011;37654;51.262;17.058;2023-07-22T02:17:09;5.40;;;3.27;;
51560;SDS011;37654;51.262;17.058;2023-07-22T02:19:35;6.20;;;3.60;;
51560;SDS011;37654;51.262;17.058;2023-07-22T02:22:02;7.03;;;3.38;;
51560;SDS011;37654;51.262;17.058;2023-07-22T02:24:28;5.35;;;3.58;;
51560;SDS011;37654;51.262;17.058;2023-07-22T02:26:53;4.53;;;2.75;;
51560;SDS011;37654;51.262;17.058;2023-07-22T02:29:18;4.10;;;2.87;;
51560;SDS011;37654;51.262;17.058;2023-07-22T02:31:44;6.57;;;3.60;;
51560;SDS011;37654;51.262;17.058;2023-07-22T02:34:11;6.03;;;3.33;;
51560;SDS011;37654;51.262;17.058;2023-07-22T02:36:36;8.77;;;3.80;;
51560;SDS011;37654;51.262;17.058;2023-07-22T02:39:02;6.27;;;4.37;;
51560;SDS011;37654;51.262;17.058;2023-07-22T02:41:28;4.90;;;4.15;;
51560;SDS011;37654;51.262;17.058;2023-07-22T02:43:53;6.53;;;3.80;;
51560;SDS011;37654;51.262;17.058;2023-07-22T02:46:18;10.90;;;4.47;;
51560;SDS011;37654;51.262;17.058;2023-07-22T02:48:44;5.82;;;4.13;;
51560;SDS011;37654;51.262;17.058;2023-07-22T02:51:09;7.90;;;4.38;;
51560;SDS011;37654;51.262;17.058;2023-07-22T02:53:38;11.65;;;5.10;;
51560;SDS011;37654;51.262;17.058;2023-07-22T02:56:06;7.45;;;5.28;;
51560;SDS011;37654;51.262;17.058;2023-07-22T02:58:32;10.13;;;5.78;;
51560;SDS011;37654;51.262;17.058;2023-07-22T03:00:58;11.13;;;5.47;;
51560;SDS011;37654;51.262;17.058;2023-07-22T03:03:23;8.98;;;5.78;;
51560;SDS011;37654;51.262;17.058;2023-07-22T03:05:48;10.37;;;5.67;;
51560;SDS011;37654;51.262;17.058;2023-07-22T03:08:14;8.33;;;4.97;;
51560;SDS011;37654;51.262;17.058;2023-07-22T03:10:39;9.60;;;5.68;;
51560;SDS011;37654;51.262;17.058;2023-07-22T03:13:04;11.87;;;5.33;;
51560;SDS011;37654;51.262;17.058;2023-07-22T03:15:30;8.67;;;5.00;;
51560;SDS011;37654;51.262;17.058;2023-07-22T03:17:55;6.40;;;4.70;;
51560;SDS011;37654;51.262;17.058;2023-07-22T03:20:21;9.40;;;4.60;;
51560;SDS011;37654;51.262;17.058;2023-07-22T03:22:47;8.50;;;4.70;;
51560;SDS011;37654;51.262;17.058;2023-07-22T03:25:13;5.95;;;4.88;;
51560;SDS011;37654;51.262;17.058;2023-07-22T03:27:39;5.47;;;4.00;;
51560;SDS011;37654;51.262;17.058;2023-07-22T03:30:05;7.22;;;4.93;;
51560;SDS011;37654;51.262;17.058;2023-07-22T03:32:35;9.25;;;5.00;;
51560;SDS011;37654;51.262;17.058;2023-07-22T03:35:01;6.78;;;4.20;;
51560;SDS011;37654;51.262;17.058;2023-07-22T03:37:27;7.55;;;4.32;;
51560;SDS011;37654;51.262;17.058;2023-07-22T03:39:52;6.18;;;4.38;;
51560;SDS011;37654;51.262;17.058;2023-07-22T03:42:18;4.90;;;4.03;;
51560;SDS011;37654;51.262;17.058;2023-07-22T03:44:43;5.30;;;3.77;;
51560;SDS011;37654;51.262;17.058;2023-07-22T03:47:08;7.90;;;5.00;;
51560;SDS011;37654;51.262;17.058;2023-07-22T03:49:33;5.70;;;4.23;;
51560;SDS011;37654;51.262;17.058;2023-07-22T03:51:59;5.97;;;4.18;;
51560;SDS011;37654;51.262;17.058;2023-07-22T03:54:24;8.37;;;4.13;;
51560;SDS011;37654;51.262;17.058;2023-07-22T03:56:49;7.33;;;4.27;;
51560;SDS011;37654;51.262;17.058;2023-07-22T03:59:14;7.13;;;4.60;;
51560;SDS011;37654;51.262;17.058;2023-07-22T04:01:40;5.80;;;4.23;;
51560;SDS011;37654;51.262;17.058;2023-07-22T04:04:05;9.88;;;4.93;;
51560;SDS011;37654;51.262;17.058;2023-07-22T04:06:30;6.00;;;4.17;;
51560;SDS011;37654;51.262;17.058;2023-07-22T04:08:55;9.33;;;4.07;;
51560;SDS011;37654;51.262;17.058;2023-07-22T04:11:21;5.93;;;3.90;;
51560;SDS011;37654;51.262;17.058;2023-07-22T04:13:46;5.50;;;4.10;;
51560;SDS011;37654;51.262;17.058;2023-07-22T04:16:11;4.82;;;3.08;;
51560;SDS011;37654;51.262;17.058;2023-07-22T04:18:37;7.43;;;3.27;;
51560;SDS011;37654;51.262;17.058;2023-07-22T04:21:02;5.03;;;3.37;;
51560;SDS011;37654;51.262;17.058;2023-07-22T04:23:27;5.95;;;3.03;;
51560;SDS011;37654;51.262;17.058;2023-07-22T04:25:52;6.97;;;3.70;;
51560;SDS011;37654;51.262;17.058;2023-07-22T04:28:18;4.30;;;3.05;;
51560;SDS011;37654;51.262;17.058;2023-07-22T04:30:43;6.37;;;3.47;;
51560;SDS011;37654;51.262;17.058;2023-07-22T04:33:19;5.57;;;2.97;;
51560;SDS011;37654;51.262;17.058;2023-07-22T04:35:44;7.00;;;3.67;;
51560;SDS011;37654;51.262;17.058;2023-07-22T04:38:10;4.60;;;3.08;;
51560;SDS011;37654;51.262;17.058;2023-07-22T04:40:35;11.67;;;4.13;;
51560;SDS011;37654;51.262;17.058;2023-07-22T04:43:00;4.83;;;3.17;;
51560;SDS011;37654;51.262;17.058;2023-07-22T04:45:26;6.05;;;2.97;;
51560;SDS011;37654;51.262;17.058;2023-07-22T04:47:52;6.20;;;3.03;;
51560;SDS011;37654;51.262;17.058;2023-07-22T04:50:17;8.05;;;3.10;;
51560;SDS011;37654;51.262;17.058;2023-07-22T04:52:44;4.22;;;2.65;;
51560;SDS011;37654;51.262;17.058;2023-07-22T04:55:10;4.10;;;2.70;;
51560;SDS011;37654;51.262;17.058;2023-07-22T04:57:35;5.07;;;2.80;;
51560;SDS011;37654;51.262;17.058;2023-07-22T05:00:04;4.15;;;3.05;;
51560;SDS011;37654;51.262;17.058;2023-07-22T05:02:29;7.80;;;2.90;;
51560;SDS011;37654;51.262;17.058;2023-07-22T05:04:58;4.07;;;2.88;;
51560;SDS011;37654;51.262;17.058;2023-07-22T05:07:23;8.50;;;3.33;;
51560;SDS011;37654;51.262;17.058;2023-07-22T05:09:49;4.63;;;2.55;;
51560;SDS011;37654;51.262;17.058;2023-07-22T05:12:14;4.55;;;2.60;;
51560;SDS011;37654;51.262;17.058;2023-07-22T05:14:40;5.18;;;2.65;;
51560;SDS011;37654;51.262;17.058;2023-07-22T05:17:05;8.23;;;2.67;;
51560;SDS011;37654;51.262;17.058;2023-07-22T05:19:30;5.88;;;2.80;;
51560;SDS011;37654;51.262;17.058;2023-07-22T05:21:56;3.70;;;2.50;;
51560;SDS011;37654;51.262;17.058;2023-07-22T05:24:21;5.40;;;2.27;;
51560;SDS011;37654;51.262;17.058;2023-07-22T05:26:46;5.85;;;2.47;;
51560;SDS011;37654;51.262;17.058;2023-07-22T05:29:12;5.40;;;2.47;;
51560;SDS011;37654;51.262;17.058;2023-07-22T05:31:37;8.00;;;2.53;;
51560;SDS011;37654;51.262;17.058;2023-07-22T05:34:02;6.65;;;2.40;;
51560;SDS011;37654;51.262;17.058;2023-07-22T05:36:29;8.65;;;2.67;;
51560;SDS011;37654;51.262;17.058;2023-07-22T05:38:54;6.45;;;2.40;;
51560;SDS011;37654;51.262;17.058;2023-07-22T05:41:19;8.80;;;2.70;;
51560;SDS011;37654;51.262;17.058;2023-07-22T05:43:45;6.82;;;2.35;;
51560;SDS011;37654;51.262;17.058;2023-07-22T05:46:10;8.20;;;2.20;;
51560;SDS011;37654;51.262;17.058;2023-07-22T05:48:35;4.67;;;2.27;;
51560;SDS011;37654;51.262;17.058;2023-07-22T05:51:00;7.50;;;2.50;;
51560;SDS011;37654;51.262;17.058;2023-07-22T05:53:25;8.00;;;2.20;;
51560;SDS011;37654;51.262;17.058;2023-07-22T05:55:51;11.40;;;2.57;;
51560;SDS011;37654;51.262;17.058;2023-07-22T05:58:16;2.30;;;1.80;;
51560;SDS011;37654;51.262;17.058;2023-07-22T06:00:42;8.80;;;2.38;;
51560;SDS011;37654;51.262;17.058;2023-07-22T06:03:08;3.47;;;2.20;;
51560;SDS011;37654;51.262;17.058;2023-07-22T06:05:34;4.00;;;2.47;;
51560;SDS011;37654;51.262;17.058;2023-07-22T06:07:59;6.90;;;2.60;;
51560;SDS011;37654;51.262;17.058;2023-07-22T06:10:24;6.60;;;2.10;;
51560;SDS011;37654;51.262;17.058;2023-07-22T06:12:49;6.97;;;2.03;;
51560;SDS011;37654;51.262;17.058;2023-07-22T06:15:15;5.73;;;1.90;;
51560;SDS011;37654;51.262;17.058;2023-07-22T06:17:40;4.67;;;1.90;;
51560;SDS011;37654;51.262;17.058;2023-07-22T06:20:05;4.47;;;2.10;;
51560;SDS011;37654;51.262;17.058;2023-07-22T06:22:31;8.93;;;2.53;;
51560;SDS011;37654;51.262;17.058;2023-07-22T06:24:56;4.40;;;1.93;;
51560;SDS011;37654;51.262;17.058;2023-07-22T06:27:21;9.60;;;2.40;;
51560;SDS011;37654;51.262;17.058;2023-07-22T06:29:47;10.17;;;2.37;;
51560;SDS011;37654;51.262;17.058;2023-07-22T06:32:12;7.37;;;2.73;;
51560;SDS011;37654;51.262;17.058;2023-07-22T06:34:37;7.95;;;2.10;;
51560;SDS011;37654;51.262;17.058;2023-07-22T06:37:03;5.47;;;2.03;;
51560;SDS011;37654;51.262;17.058;2023-07-22T06:39:28;9.20;;;3.38;;
51560;SDS011;37654;51.262;17.058;2023-07-22T06:41:53;4.40;;;1.83;;
51560;SDS011;37654;51.262;17.058;2023-07-22T06:44:19;2.30;;;1.70;;
51560;SDS011;37654;51.262;17.058;2023-07-22T06:46:44;10.80;;;1.90;;
51560;SDS011;37654;51.262;17.058;2023-07-22T06:49:09;5.82;;;2.40;;
51560;SDS011;37654;51.262;17.058;2023-07-22T06:51:35;9.15;;;2.47;;
51560;SDS011;37654;51.262;17.058;2023-07-22T06:54:02;7.07;;;2.30;;
51560;SDS011;37654;51.262;17.058;2023-07-22T06:56:27;8.70;;;2.67;;
51560;SDS011;37654;51.262;17.058;2023-07-22T06:58:53;2.90;;;1.70;;
51560;SDS011;37654;51.262;17.058;2023-07-22T07:01:18;7.97;;;2.20;;
51560;SDS011;37654;51.262;17.058;2023-07-22T07:03:43;4.32;;;1.70;;
51560;SDS011;37654;51.262;17.058;2023-07-22T07:06:09;7.87;;;2.50;;
51560;SDS011;37654;51.262;17.058;2023-07-22T07:08:34;8.33;;;2.10;;
51560;SDS011;37654;51.262;17.058;2023-07-22T07:10:59;4.67;;;2.23;;
51560;SDS011;37654;51.262;17.058;2023-07-22T07:13:26;5.95;;;2.30;;
51560;SDS011;37654;51.262;17.058;2023-07-22T07:15:51;3.80;;;2.03;;
51560;SDS011;37654;51.262;17.058;2023-07-22T07:18:16;7.63;;;2.13;;
51560;SDS011;37654;51.262;17.058;2023-07-22T07:20:42;4.75;;;2.40;;
51560;SDS011;37654;51.262;17.058;2023-07-22T07:23:08;5.50;;;3.00;;
51560;SDS011;37654;51.262;17.058;2023-07-22T07:25:33;12.17;;;4.40;;
51560;SDS011;37654;51.262;17.058;2023-07-22T07:27:58;4.07;;;2.17;;
51560;SDS011;37654;51.262;17.058;2023-07-22T07:30:24;3.53;;;1.80;;
51560;SDS011;37654;51.262;17.058;2023-07-22T07:32:49;5.53;;;2.07;;
51560;SDS011;37654;51.262;17.058;2023-07-22T07:35:14;4.67;;;2.17;;
51560;SDS011;37654;51.262;17.058;2023-07-22T07:37:39;4.20;;;1.70;;
51560;SDS011;37654;51.262;17.058;2023-07-22T07:40:05;3.50;;;1.90;;
51560;SDS011;37654;51.262;17.058;2023-07-22T07:42:30;5.65;;;1.60;;
51560;SDS011;37654;51.262;17.058;2023-07-22T07:44:56;5.20;;;2.00;;
51560;SDS011;37654;51.262;17.058;2023-07-22T07:47:21;2.70;;;1.87;;
51560;SDS011;37654;51.262;17.058;2023-07-22T07:49:46;8.77;;;1.53;;
51560;SDS011;37654;51.262;17.058;2023-07-22T07:52:12;3.47;;;2.40;;
51560;SDS011;37654;51.262;17.058;2023-07-22T07:54:37;3.57;;;1.47;;
51560;SDS011;37654;51.262;17.058;2023-07-22T07:57:02;3.60;;;2.20;;
51560;SDS011;37654;51.262;17.058;2023-07-22T07:59:27;6.38;;;1.58;;
51560;SDS011;37654;51.262;17.058;2023-07-22T08:01:53;2.67;;;1.90;;
51560;SDS011;37654;51.262;17.058;2023-07-22T08:04:18;3.30;;;1.60;;
51560;SDS011;37654;51.262;17.058;2023-07-22T08:06:43;3.73;;;1.70;;
51560;SDS011;37654;51.262;17.058;2023-07-22T08:09:10;9.77;;;3.00;;
51560;SDS011;37654;51.262;17.058;2023-07-22T08:11:36;2.63;;;1.27;;
51560;SDS011;37654;51.262;17.058;2023-07-22T08:14:01;2.88;;;2.15;;
51560;SDS011;37654;51.262;17.058;2023-07-22T08:16:27;4.25;;;1.88;;
51560;SDS011;37654;51.262;17.058;2023-07-22T08:18:53;2.97;;;1.40;;
51560;SDS011;37654;51.262;17.058;2023-07-22T08:21:18;2.80;;;1.40;;
51560;SDS011;37654;51.262;17.058;2023-07-22T08:23:44;4.10;;;1.70;;
51560;SDS011;37654;51.262;17.058;2023-07-22T08:26:11;2.25;;;1.40;;
51560;SDS011;37654;51.262;17.058;2023-07-22T08:28:37;3.95;;;1.55;;
51560;SDS011;37654;51.262;17.058;2023-07-22T08:31:02;2.83;;;1.27;;
51560;SDS011;37654;51.262;17.058;2023-07-22T08:33:28;5.03;;;1.40;;
51560;SDS011;37654;51.262;17.058;2023-07-22T08:35:53;4.07;;;3.03;;
51560;SDS011;37654;51.262;17.058;2023-07-22T08:38:18;3.80;;;1.37;;
51560;SDS011;37654;51.262;17.058;2023-07-22T08:40:44;2.10;;;1.30;;
51560;SDS011;37654;51.262;17.058;2023-07-22T08:43:10;1.63;;;1.30;;
51560;SDS011;37654;51.262;17.058;2023-07-22T08:45:36;3.33;;;1.50;;
51560;SDS011;37654;51.262;17.058;2023-07-22T08:48:02;2.95;;;1.30;;
51560;SDS011;37654;51.262;17.058;2023-07-22T08:50:49;3.33;;;1.23;;
51560;SDS011;37654;51.262;17.058;2023-07-22T08:53:16;2.35;;;1.08;;
51560;SDS011;37654;51.262;17.058;2023-07-22T08:55:42;2.85;;;1.08;;
51560;SDS011;37654;51.262;17.058;2023-07-22T08:58:08;1.45;;;1.20;;
51560;SDS011;37654;51.262;17.058;2023-07-22T09:00:34;2.83;;;1.45;;
51560;SDS011;37654;51.262;17.058;2023-07-22T09:02:59;2.50;;;1.40;;
51560;SDS011;37654;51.262;17.058;2023-07-22T09:05:25;5.10;;;1.67;;
51560;SDS011;37654;51.262;17.058;2023-07-22T09:07:51;2.67;;;1.25;;
51560;SDS011;37654;51.262;17.058;2023-07-22T09:10:17;1.27;;;1.17;;
51560;SDS011;37654;51.262;17.058;2023-07-22T09:12:42;4.07;;;1.57;;
51560;SDS011;37654;51.262;17.058;2023-07-22T09:15:14;1.80;;;1.50;;
51560;SDS011;37654;51.262;17.058;2023-07-22T09:17:41;2.97;;;1.60;;
51560;SDS011;37654;51.262;17.058;2023-07-22T09:20:06;6.07;;;2.30;;
51560;SDS011;37654;51.262;17.058;2023-07-22T09:22:32;2.63;;;2.20;;
51560;SDS011;37654;51.262;17.058;2023-07-22T09:27:38;6.40;;;2.30;;
51560;SDS011;37654;51.262;17.058;2023-07-22T09:30:03;3.60;;;2.13;;
51560;SDS011;37654;51.262;17.058;2023-07-22T09:32:44;1.95;;;1.70;;
51560;SDS011;37654;51.262;17.058;2023-07-22T09:35:09;4.87;;;1.93;;
51560;SDS011;37654;51.262;17.058;2023-07-22T09:37:38;5.73;;;1.60;;
51560;SDS011;37654;51.262;17.058;2023-07-22T09:42:44;2.25;;;1.70;;
51560;SDS011;37654;51.262;17.058;2023-07-22T09:45:09;5.25;;;2.00;;
51560;SDS011;37654;51.262;17.058;2023-07-22T09:47:41;4.20;;;1.77;;
51560;SDS011;37654;51.262;17.058;2023-07-22T09:50:08;3.00;;;1.57;;
51560;SDS011;37654;51.262;17.058;2023-07-22T09:52:40;2.30;;;1.60;;
51560;SDS011;37654;51.262;17.058;2023-07-22T09:55:05;7.32;;;1.50;;
51560;SDS011;37654;51.262;17.058;2023-07-22T09:57:32;4.72;;;1.60;;
51560;SDS011;37654;51.262;17.058;2023-07-22T09:59:58;1.90;;;1.70;;
51560;SDS011;37654;51.262;17.058;2023-07-22T10:02:24;8.20;;;1.88;;
51560;SDS011;37654;51.262;17.058;2023-07-22T10:04:50;6.82;;;1.60;;
51560;SDS011;37654;51.262;17.058;2023-07-22T10:07:16;5.18;;;1.60;;
51560;SDS011;37654;51.262;17.058;2023-07-22T10:09:43;3.40;;;1.67;;
51560;SDS011;37654;51.262;17.058;2023-07-22T10:12:08;1.80;;;1.67;;
51560;SDS011;37654;51.262;17.058;2023-07-22T10:14:33;1.88;;;1.60;;
51560;SDS011;37654;51.262;17.058;2023-07-22T10:16:59;2.28;;;1.73;;
51560;SDS011;37654;51.262;17.058;2023-07-22T10:19:25;4.00;;;1.40;;
51560;SDS011;37654;51.262;17.058;2023-07-22T10:21:51;7.13;;;1.40;;
51560;SDS011;37654;51.262;17.058;2023-07-22T10:24:16;3.25;;;1.65;;
51560;SDS011;37654;51.262;17.058;2023-07-22T10:26:42;6.40;;;1.65;;
51560;SDS011;37654;51.262;17.058;2023-07-22T10:29:08;2.53;;;1.77;;
51560;SDS011;37654;51.262;17.058;2023-07-22T10:31:35;3.63;;;1.52;;
51560;SDS011;37654;51.262;17.058;2023-07-22T10:34:00;4.90;;;1.70;;
51560;SDS011;37654;51.262;17.058;2023-07-22T10:36:28;1.47;;;1.30;;
51560;SDS011;37654;51.262;17.058;2023-07-22T10:38:57;4.75;;;1.60;;
51560;SDS011;37654;51.262;17.058;2023-07-22T10:41:22;5.40;;;1.80;;
51560;SDS011;37654;51.262;17.058;2023-07-22T10:43:55;2.45;;;1.50;;
51560;SDS011;37654;51.262;17.058;2023-07-22T10:51:41;3.28;;;1.65;;
51560;SDS011;37654;51.262;17.058;2023-07-22T10:54:13;3.72;;;1.67;;
51560;SDS011;37654;51.262;17.058;2023-07-22T10:56:40;6.25;;;1.90;;
51560;SDS011;37654;51.262;17.058;2023-07-22T10:59:05;4.40;;;2.00;;
51560;SDS011;37654;51.262;17.058;2023-07-22T11:01:35;3.42;;;2.05;;
51560;SDS011;37654;51.262;17.058;2023-07-22T11:09:32;2.33;;;1.80;;
51560;SDS011;37654;51.262;17.058;2023-07-22T11:11:58;2.53;;;1.75;;
51560;SDS011;37654;51.262;17.058;2023-07-22T11:14:24;2.38;;;1.40;;
51560;SDS011;37654;51.262;17.058;2023-07-22T11:16:50;3.90;;;1.67;;
51560;SDS011;37654;51.262;17.058;2023-07-22T11:19:16;8.52;;;1.88;;
51560;SDS011;37654;51.262;17.058;2023-07-22T11:21:42;2.90;;;1.88;;
51560;SDS011;37654;51.262;17.058;2023-07-22T11:24:07;2.40;;;1.73;;
51560;SDS011;37654;51.262;17.058;2023-07-22T11:26:33;5.43;;;1.80;;
51560;SDS011;37654;51.262;17.058;2023-07-22T11:29:02;2.22;;;1.73;;
51560;SDS011;37654;51.262;17.058;2023-07-22T11:31:34;3.25;;;1.80;;
51560;SDS011;37654;51.262;17.058;2023-07-22T11:34:02;6.47;;;2.38;;
51560;SDS011;37654;51.262;17.058;2023-07-22T11:36:27;7.07;;;1.95;;
51560;SDS011;37654;51.262;17.058;2023-07-22T11:38:52;6.83;;;2.00;;
51560;SDS011;37654;51.262;17.058;2023-07-22T11:41:19;2.55;;;1.70;;
51560;SDS011;37654;51.262;17.058;2023-07-22T11:43:45;1.77;;;1.50;;
51560;SDS011;37654;51.262;17.058;2023-07-22T11:46:13;4.20;;;1.80;;
51560;SDS011;37654;51.262;17.058;2023-07-22T11:48:38;3.80;;;1.75;;
51560;SDS011;37654;51.262;17.058;2023-07-22T11:51:03;6.03;;;1.57;;
51560;SDS011;37654;51.262;17.058;2023-07-22T11:53:30;2.85;;;1.60;;
51560;SDS011;37654;51.262;17.058;2023-07-22T11:55:56;2.13;;;1.93;;
51560;SDS011;37654;51.262;17.058;2023-07-22T11:58:24;5.07;;;1.40;;
51560;SDS011;37654;51.262;17.058;2023-07-22T12:01:01;4.40;;;1.45;;
51560;SDS011;37654;51.262;17.058;2023-07-22T12:03:30;3.47;;;1.58;;
51560;SDS011;37654;51.262;17.058;2023-07-22T12:05:55;6.78;;;1.70;;
51560;SDS011;37654;51.262;17.058;2023-07-22T12:08:21;3.35;;;1.80;;
51560;SDS011;37654;51.262;17.058;2023-07-22T12:10:55;4.37;;;1.80;;
51560;SDS011;37654;51.262;17.058;2023-07-22T12:13:20;4.43;;;1.42;;
51560;SDS011;37654;51.262;17.058;2023-07-22T12:15:58;2.43;;;1.50;;
51560;SDS011;37654;51.262;17.058;2023-07-22T12:18:24;1.80;;;1.30;;
51560;SDS011;37654;51.262;17.058;2023-07-22T12:20:49;4.33;;;1.60;;
51560;SDS011;37654;51.262;17.058;2023-07-22T12:23:14;3.37;;;1.63;;
51560;SDS011;37654;51.262;17.058;2023-07-22T12:25:40;8.95;;;2.03;;
51560;SDS011;37654;51.262;17.058;2023-07-22T12:28:05;13.83;;;2.83;;
51560;SDS011;37654;51.262;17.058;2023-07-22T12:30:31;3.05;;;1.60;;
51560;SDS011;37654;51.262;17.058;2023-07-22T12:32:56;4.80;;;1.80;;
51560;SDS011;37654;51.262;17.058;2023-07-22T12:35:22;3.50;;;1.90;;
51560;SDS011;37654;51.262;17.058;2023-07-22T12:37:47;2.83;;;1.40;;
51560;SDS011;37654;51.262;17.058;2023-07-22T12:40:12;2.67;;;1.63;;
51560;SDS011;37654;51.262;17.058;2023-07-22T12:42:38;4.40;;;1.65;;
51560;SDS011;37654;51.262;17.058;2023-07-22T12:45:04;3.87;;;1.80;;
51560;SDS011;37654;51.262;17.058;2023-07-22T12:47:29;12.27;;;1.85;;
51560;SDS011;37654;51.262;17.058;2023-07-22T12:49:55;2.67;;;1.70;;
51560;SDS011;37654;51.262;17.058;2023-07-22T12:52:20;3.97;;;1.73;;
51560;SDS011;37654;51.262;17.058;2023-07-22T12:54:45;3.77;;;2.17;;
51560;SDS011;37654;51.262;17.058;2023-07-22T12:57:10;6.00;;;1.80;;
51560;SDS011;37654;51.262;17.058;2023-07-22T12:59:36;6.20;;;1.60;;
51560;SDS011;37654;51.262;17.058;2023-07-22T13:02:01;8.20;;;1.80;;
51560;SDS011;37654;51.262;17.058;2023-07-22T13:04:26;6.97;;;1.67;;
51560;SDS011;37654;51.262;17.058;2023-07-22T13:06:51;2.33;;;1.40;;
51560;SDS011;37654;51.262;17.058;2023-07-22T13:09:17;3.63;;;1.60;;
51560;SDS011;37654;51.262;17.058;2023-07-22T13:11:42;2.35;;;1.20;;
51560;SDS011;37654;51.262;17.058;2023-07-22T13:14:08;4.80;;;1.70;;
51560;SDS011;37654;51.262;17.058;2023-07-22T13:16:33;4.43;;;1.47;;
51560;SDS011;37654;51.262;17.058;2023-07-22T13:18:58;2.97;;;1.70;;
51560;SDS011;37654;51.262;17.058;2023-07-22T13:21:25;2.25;;;1.77;;
51560;SDS011;37654;51.262;17.058;2023-07-22T13:23:51;5.68;;;1.60;;
51560;SDS011;37654;51.262;17.058;2023-07-22T13:26:16;5.73;;;1.73;;
51560;SDS011;37654;51.262;17.058;2023-07-22T13:28:41;2.07;;;1.60;;
51560;SDS011;37654;51.262;17.058;2023-07-22T13:31:07;5.33;;;2.00;;
51560;SDS011;37654;51.262;17.058;2023-07-22T13:33:32;1.90;;;1.40;;
51560;SDS011;37654;51.262;17.058;2023-07-22T13:35:57;2.53;;;1.47;;
51560;SDS011;37654;51.262;17.058;2023-07-22T13:38:22;2.17;;;1.70;;
51560;SDS011;37654;51.262;17.058;2023-07-22T13:40:48;2.50;;;1.70;;
51560;SDS011;37654;51.262;17.058;2023-07-22T13:43:13;2.85;;;1.67;;
51560;SDS011;37654;51.262;17.058;2023-07-22T13:45:38;4.10;;;1.53;;
51560;SDS011;37654;51.262;17.058;2023-07-22T13:48:04;2.83;;;1.83;;
51560;SDS011;37654;51.262;17.058;2023-07-22T13:50:29;3.28;;;2.08;;
51560;SDS011;37654;51.262;17.058;2023-07-22T13:52:55;2.30;;;1.55;;
51560;SDS011;37654;51.262;17.058;2023-07-22T13:55:21;6.53;;;1.85;;
51560;SDS011;37654;51.262;17.058;2023-07-22T13:57:46;2.97;;;1.83;;
51560;SDS011;37654;51.262;17.058;2023-07-22T14:00:11;2.93;;;1.63;;
51560;SDS011;37654;51.262;17.058;2023-07-22T14:02:38;2.38;;;1.60;;
51560;SDS011;37654;51.262;17.058;2023-07-22T14:05:03;4.57;;;2.57;;
51560;SDS011;37654;51.262;17.058;2023-07-22T14:07:29;2.47;;;1.75;;
51560;SDS011;37654;51.262;17.058;2023-07-22T14:09:54;3.92;;;1.90;;
51560;SDS011;37654;51.262;17.058;2023-07-22T14:12:20;3.97;;;1.85;;
51560;SDS011;37654;51.262;17.058;2023-07-22T14:14:45;2.25;;;1.95;;
51560;SDS011;37654;51.262;17.058;2023-07-22T14:17:10;2.03;;;1.70;;
51560;SDS011;37654;51.262;17.058;2023-07-22T14:19:36;3.87;;;1.90;;
51560;SDS011;37654;51.262;17.058;2023-07-22T14:22:01;6.83;;;2.10;;
51560;SDS011;37654;51.262;17.058;2023-07-22T14:24:26;3.28;;;1.98;;
51560;SDS011;37654;51.262;17.058;2023-07-22T14:26:52;2.87;;;2.03;;
51560;SDS011;37654;51.262;17.058;2023-07-22T14:29:17;2.90;;;1.60;;
51560;SDS011;37654;51.262;17.058;2023-07-22T14:31:42;5.60;;;1.97;;
51560;SDS011;37654;51.262;17.058;2023-07-22T14:34:08;8.13;;;2.00;;
51560;SDS011;37654;51.262;17.058;2023-07-22T14:36:33;3.22;;;1.73;;
51560;SDS011;37654;51.262;17.058;2023-07-22T14:38:59;3.63;;;2.00;;
51560;SDS011;37654;51.262;17.058;2023-07-22T14:41:24;3.90;;;1.90;;